Tiempo atmosférico en la estación meteorológica de Navalvillar De Ibor, Cáceres (923 m.)



Fecha
DESCASC
Temp. máxima en grados centígrados (hora)
DESCASC
Temp. mínima en grados centígrados (hora)
DESCASC
Temp. media en grados centígrados
DESCASC
Racha de viento máxima en m/sg (hora)
DESCASC
Velocidad máxima media en intervalos de 10 minutos(hora)
DESCASC
Precipitaciones diarias en mm
DESCASC
Precipitaciones de 00:00 a 06:00 en mm
DESCASC
Precipitaciones de 06:00 a 12:00 en mm
DESCASC
Precipitaciones de 12:00 a 18:00 en mm
DESCASC
Precipitaciones de 18:00 a 24:00 en mm
DESCASC
21-07-2019 36.3 (17:10) 23.1 (00:00) 29.7 7.5 (17:40) 3.06 (17:00) 0 0 0 0 0
22-07-2019 35.5 (17:30) 23.1 (00:00) 29.3 10.83 (17:20) 3.06 (23:59) 1.6 0 0 0 1.6
19-07-2019 34.6 (17:40) 22.4 (00:00) 28.5 10.28 (15:20) 3.61 (15:20) 0 0 0 0 0
20-07-2019 34.2 (16:30) 22 (00:00) 28.1 8.33 (16:30) 3.61 (15:10) 0 0 0 0 0
17-08-2019 33.4 (18:10) 21.2 (00:00) 27.3 10.83 (17:00) 3.61 (14:40) 0 0 0 0 0
24-07-2019 33.6 (17:50) 21 (00:00) 27.3 10.56 (02:20) 6.94 (02:20) 0 0 0 0 0
04-08-2019 32 (16:40) 20.8 (00:00) 26.4 8.06 (16:40) 2.78 (17:00) 0 0 0 0 0
16-08-2019 33.8 (17:10) 20.6 (00:00) 27.2 10 (18:20) 3.89 (14:00) 0 0 0 0 0
23-07-2019 33.5 (18:50) 20.4 (00:00) 26.9 9.72 (02:50) 5.28 (02:50) 12.2 11.8 0.4 0 0
15-08-2019 33.5 (16:10) 20 (00:00) 26.8 8.06 (15:10) 3.06 (15:20) 0 0 0 0 0
06-08-2019 31.4 (16:20) 19.8 (00:00) 25.6 10.28 (19:20) 3.06 (17:00) 0 0 0 0 0
25-07-2019 31.9 (16:10) 19.6 (00:00) 25.8 8.33 (18:10) 3.61 (18:10) 0 0 0 0 0
01-08-2019 30.9 (17:00) 19.5 (00:00) 25.2 10.28 (16:50) 3.61 (16:10) 0 0 0 0 0
03-08-2019 32.3 (15:50) 19.4 (00:00) 25.8 8.61 (15:00) 3.61 (15:00) 0 0 0 0 0
07-08-2019 23.8 (16:30) 19 (00:00) 21.4 7.5 (03:10) 3.06 (15:50) 0 0 0 0 0
05-08-2019 32.3 (16:50) 18.6 (00:00) 25.4 10.28 (19:00) 3.33 (14:00) 0 0 0 0 0
02-08-2019 32.8 (17:50) 18 (00:00) 25.4 8.33 (16:20) 3.06 (01:00) 0 0 0 0 0
29-07-2019 28.2 (16:50) 17.3 (00:00) 22.8 9.72 (17:00) 3.61 (17:30) 0 0 0 0 0
14-08-2019 31.8 (16:10) 17.2 (00:00) 24.5 7.78 (17:30) 2.78 (15:20) 0 0 0 0 0
09-08-2019 26.4 (15:30) 16.9 (00:00) 21.6 10.28 (13:00) 3.61 (17:10) 0 0 0 0 0
08-08-2019 30.2 (17:20) 16.7 (00:00) 23.5 10 (18:10) 3.33 (15:40) 0 0 0 0 0
31-07-2019 32 (17:40) 16.7 (00:00) 24.4 6.39 (17:00) 2.5 (13:00) 0 0 0 0 0
26-07-2019 26.3 (17:40) 16.6 (00:00) 21.4 9.44 (17:40) 3.61 (15:50) 0 0 0 0 0
28-07-2019 28.3 (17:40) 14.7 (00:00) 21.5 6.67 (15:10) 2.78 (15:50) 0 0 0 0 0
11-08-2019 23.9 (18:10) 14.3 (00:00) 19.1 9.72 (19:00) 4.44 (07:10) 0 0 0 0 0
10-08-2019 28.5 (17:40) 13.9 (00:00) 21.2 7.78 (19:10) 2.78 (16:30) 0 0 0 0 0
30-07-2019 29.2 (18:10) 13.4 (00:00) 21.3 6.94 (14:40) 3.89 (03:00) 0 0 0 0 0
13-08-2019 29.1 (17:40) 13.3 (00:00) 21.2 6.94 (15:10) 3.06 (04:00) 0 0 0 0 0
12-08-2019 26.1 (17:20) 12.6 (00:00) 19.4 7.5 (18:20) 3.61 (18:30) 0 0 0 0 0
27-07-2019 23.2 (19:00) 12.3 (00:00) 17.8 8.89 (17:10) 3.89 (06:50) 0 0 0 0 0

Gráficas

Temp. máximas Temp. mínimas Temp. medias Precipitaciones Rachas de viento máximas Velocidades máximas media en intervalos de 10 minutos

Datos horarios

Fecha y hora oficial Temperatura (ºC) Velocidad del viento (km/h) Dirección del viento Racha (km/h) Dirección de racha Precipitación (mm) Presión (hPa) Tendencia (hPa) Humedad (%)
2019-08-17 23:00:00 25.8 8 Sudoeste 15 Sur 0 -- -- 18
2019-08-17 22:00:00 26.6 7 Sudoeste 15 Oeste 0 -- -- 17
2019-08-17 21:00:00 28.5 5 Sudoeste 22 Sudoeste 0 -- -- 17
2019-08-17 20:00:00 32.1 8 Noroeste 26 Noroeste 0 -- -- 17
2019-08-17 19:00:00 32.8 10 Oeste 24 Sudoeste 0 -- -- 16
2019-08-17 18:00:00 33.1 9 Oeste 27 Oeste 0 -- -- 19
2019-08-17 17:00:00 32.8 10 Noroeste 39 Oeste 0 -- -- 21
2019-08-17 16:00:00 32.6 10 Oeste 28 Oeste 0 -- -- 23
2019-08-17 15:00:00 32.3 11 Oeste 28 Oeste 0 -- -- 24
2019-08-17 14:00:00 31.8 6 Sur 27 Oeste 0 -- -- 26
2019-08-17 13:00:00 31.4 8 Oeste 22 Oeste 0 -- -- 27
2019-08-17 12:00:00 31 6 Sudeste 19 Sudeste 0 -- -- 29
2019-08-17 11:00:00 29.1 6 Norte 14 Sudoeste 0 -- -- 30
2019-08-17 10:00:00 28.5 2 Este 10 Sudoeste 0 -- -- 27
2019-08-17 09:00:00 24.1 4 Sur 16 Sur 0 -- -- 36
2019-08-17 08:00:00 21.2 5 Sur 10 Sur 0 -- -- 44
2019-08-17 07:00:00 22.6 6 Sur 13 Sur 0 -- -- 42
2019-08-17 06:00:00 22.3 7 Sur 14 Sudeste 0 -- -- 44
2019-08-17 05:00:00 22.6 5 Sur 10 Sur 0 -- -- 45
2019-08-17 04:00:00 22.8 4 Sudoeste 12 Oeste 0 -- -- 46
2019-08-17 03:00:00 23.1 5 Sudoeste 12 Sudoeste 0 -- -- 45
2019-08-17 02:00:00 22.9 5 Sudoeste 20 Sur 0 -- -- 45
2019-08-17 01:00:00 24.3 9 Sudoeste 17 Sudoeste 0 -- -- 43
2019-08-17 00:00:00 24.1 5 Sudoeste 12 Sudoeste 0 -- -- 37
2019-08-16 23:00:00 24.9 4 Sudoeste 10 Oeste 0 -- -- 37
2019-08-16 22:00:00 26.1 4 Sudoeste 15 Sudoeste 0 -- -- 33
2019-08-16 21:00:00 29.5 6 Oeste 18 Noroeste 0 -- -- 29
2019-08-16 20:00:00 31.9 7 Noroeste 22 Oeste 0 -- -- 26
2019-08-16 19:00:00 33 9 Oeste 36 Noroeste 0 -- -- 26
2019-08-16 18:00:00 33.4 12 Noroeste 29 Noroeste 0 -- -- 27
2019-08-16 17:00:00 33.6 12 Noroeste 25 Oeste 0 -- -- 29
2019-08-16 16:00:00 33.6 9 Oeste 23 Oeste 0 -- -- 26
2019-08-16 15:00:00 32.6 8 Noroeste 24 Noroeste 0 -- -- 31
2019-08-16 14:00:00 32.2 14 Noroeste 24 Norte 0 -- -- 30
2019-08-16 13:00:00 31.8 10 Oeste 23 Noroeste 0 -- -- 30
2019-08-16 12:00:00 31 8 Noroeste 15 Norte 0 -- -- 31
2019-08-16 11:00:00 29.8 5 Noroeste 9 Norte 0 -- -- 34
2019-08-16 10:00:00 28.2 0 Calma 3 Norte 0 -- -- 35
2019-08-16 09:00:00 23.1 3 Sur 7 Sur 0 -- -- 48
2019-08-16 08:00:00 20.8 6 Sur 8 Sur 0 -- -- 46
2019-08-16 07:00:00 20.6 4 Sur 6 Sur 0 -- -- 46
2019-08-16 06:00:00 21.5 4 Sur 8 Sur 0 -- -- 44
2019-08-16 05:00:00 23 4 Este 8 Sudeste 0 -- -- 40
2019-08-16 04:00:00 22.5 5 Sudeste 8 Sudeste 0 -- -- 42
2019-08-16 03:00:00 22.7 5 Sur 8 Sur 0 -- -- 41
2019-08-16 02:00:00 23.1 6 Sur 8 Sur 0 -- -- 40
2019-08-16 01:00:00 23.6 5 Sur 14 Sudoeste 0 -- -- 38
2019-08-16 00:00:00 24.4 5 Sudoeste 10 Sudoeste 0 -- -- 36
2019-08-15 23:00:00 24.8 4 Sudoeste 10 Sudoeste 0 -- -- 36
2019-08-15 22:00:00 26.3 3 Sudoeste 12 Sudoeste 0 -- -- 34
2019-08-15 21:00:00 28.8 4 Sur 17 Noroeste 0 -- -- 33
2019-08-15 20:00:00 31.8 7 Oeste 21 Noroeste 0 -- -- 27
2019-08-15 19:00:00 32.8 8 Noroeste 24 Oeste 0 -- -- 28
2019-08-15 18:00:00 33.2 8 Noroeste 24 Oeste 0 -- -- 28
2019-08-15 17:00:00 33.4 7 Norte 26 Norte 0 -- -- 29
2019-08-15 16:00:00 32.9 8 Sur 29 Sur 0 -- -- 28
2019-08-15 15:00:00 32.4 9 Sudoeste 22 Oeste 0 -- -- 28
2019-08-15 14:00:00 32.1 7 Sudoeste 19 Noroeste 0 -- -- 27
2019-08-15 13:00:00 30.9 7 Oeste 21 Noroeste 0 -- -- 30
2019-08-15 12:00:00 30.1 6 Noroeste 15 Noroeste 0 -- -- 30
2019-08-15 11:00:00 28.2 6 Noroeste 9 Noroeste 0 -- -- 34
2019-08-15 10:00:00 26.8 2 Norte 6 Norte 0 -- -- 37
2019-08-15 09:00:00 22 0 Calma 8 Sudeste 0 -- -- 49
2019-08-15 08:00:00 20 4 Sur 8 Sur 0 -- -- 47
2019-08-15 07:00:00 20.6 6 Sur 9 Este 0 -- -- 45
2019-08-15 06:00:00 23.2 5 Sudeste 13 Sudeste 0 -- -- 41
2019-08-15 05:00:00 23.5 8 Sur 14 Sur 0 -- -- 40
2019-08-15 04:00:00 21.3 5 Sudeste 8 Sudeste 0 -- -- 43
2019-08-15 03:00:00 21.7 4 Sur 7 Sur 0 -- -- 43
2019-08-15 02:00:00 21.6 5 Sur 11 Sudoeste 0 -- -- 43
2019-08-15 01:00:00 22.4 5 Sudoeste 15 Sudoeste 0 -- -- 36
2019-08-15 00:00:00 22.4 5 Sur 9 Sudoeste 0 -- -- 37
2019-08-14 23:00:00 22.9 5 Sudoeste 10 Oeste 0 -- -- 33
2019-08-14 22:00:00 23.6 5 Sudoeste 9 Sudoeste 0 -- -- 31
2019-08-14 21:00:00 26.4 5 Sudoeste 14 Oeste 0 -- -- 28
2019-08-14 20:00:00 30 4 Noroeste 18 Oeste 0 -- -- 23
2019-08-14 19:00:00 31.1 8 Noroeste 19 Noroeste 0 -- -- 22
2019-08-14 18:00:00 31.4 9 Noroeste 28 Noroeste 0 -- -- 22
2019-08-14 17:00:00 31.5 9 Oeste 24 Noroeste 0 -- -- 21
2019-08-14 16:00:00 31.3 9 Norte 21 Norte 0 -- -- 21
2019-08-14 15:00:00 30.5 9 Noroeste 21 Oeste 0 -- -- 23
2019-08-14 14:00:00 29.8 7 Noroeste 18 Noroeste 0 -- -- 24
2019-08-14 13:00:00 28.6 6 Sudeste 15 Noroeste 0 -- -- 23
2019-08-14 12:00:00 27.6 6 Noroeste 17 Noroeste 0 -- -- 26
2019-08-14 11:00:00 26.3 2 Sudeste 7 Sudoeste 0 -- -- 28
2019-08-14 10:00:00 24.8 2 Norte 6 Noroeste 0 -- -- 32
2019-08-14 09:00:00 20.1 0 Calma 9 Sudeste 0 -- -- 42
2019-08-14 08:00:00 17.3 5 Sur 9 Sudoeste 0 -- -- 40
2019-08-14 07:00:00 17.8 4 Sur 9 Sur 0 -- -- 38
2019-08-14 06:00:00 17.6 6 Sur 8 Sur 0 -- -- 39
2019-08-14 05:00:00 18 6 Sur 10 Sudeste 0 -- -- 38
2019-08-14 04:00:00 18.5 6 Sur 8 Sudeste 0 -- -- 37
2019-08-14 03:00:00 18.6 6 Sur 9 Sudeste 0 -- -- 38
2019-08-14 02:00:00 18.7 6 Sur 8 Sudeste 0 -- -- 37
2019-08-14 01:00:00 19.1 4 Sur 8 Sur 0 -- -- 37
2019-08-14 00:00:00 19.4 5 Sur 8 Sur 0 -- -- 31
2019-08-13 23:00:00 20 5 Sur 8 Sudoeste 0 -- -- 32
2019-08-13 22:00:00 20.8 5 Sur 8 Sudoeste 0 -- -- 29
2019-08-13 21:00:00 23.8 3 Sur 17 Oeste 0 -- -- 26
2019-08-13 20:00:00 27.2 6 Noroeste 19 Noroeste 0 -- -- 24
2019-08-13 19:00:00 28.2 8 Noroeste 23 Noroeste 0 -- -- 23
2019-08-13 18:00:00 29 7 Norte 19 Norte 0 -- -- 24
2019-08-13 17:00:00 28.8 8 Noroeste 21 Norte 0 -- -- 26
2019-08-13 16:00:00 27.9 10 Oeste 25 Noroeste 0 -- -- 28
2019-08-13 15:00:00 27.1 6 Noroeste 17 Norte 0 -- -- 28
2019-08-13 14:00:00 26.5 7 Sudeste 20 Norte 0 -- -- 29
2019-08-13 13:00:00 25.6 7 Nordeste 18 Noroeste 0 -- -- 33
2019-08-13 12:00:00 24.7 5 Norte 15 Norte 0 -- -- 33
2019-08-13 11:00:00 22.3 8 Norte 16 Norte 0 -- -- 40
2019-08-13 10:00:00 20.6 3 Norte 12 Norte 0 -- -- 44
2019-08-13 09:00:00 17.2 4 Sudeste 11 Este 0 -- -- 47
2019-08-13 08:00:00 13.6 3 Sudeste 9 Sur 0 -- -- 48
2019-08-13 07:00:00 13.3 3 Sur 8 Nordeste 0 -- -- 50
2019-08-13 06:00:00 15.1 3 Sudeste 9 Este 0 -- -- 42
2019-08-13 05:00:00 18 5 Este 21 Sudeste 0 -- -- 35
2019-08-13 04:00:00 18.6 11 Sur 21 Sur 0 -- -- 33
2019-08-13 03:00:00 19 7 Sur 14 Este 0 -- -- 32
2019-08-13 02:00:00 19.9 5 Sudeste 11 Sudeste 0 -- -- 30
2019-08-13 01:00:00 19.6 3 Sur 9 Sudeste 0 -- -- 29
2019-08-13 00:00:00 20.4 4 Sur 10 Sudeste 0 -- -- 29
2019-08-12 23:00:00 20.9 4 Sudeste 11 Sudeste 0 -- -- 28
2019-08-12 22:00:00 20.6 5 Sudeste 11 Este 0 -- -- 29
2019-08-12 21:00:00 21.8 6 Norte 15 Norte 0 -- -- 27
2019-08-12 20:00:00 24 9 Norte 18 Norte 0 -- -- 26
2019-08-12 19:00:00 25.3 8 Norte 27 Norte 0 -- -- 26
2019-08-12 18:00:00 26.1 8 Norte 23 Norte 0 -- -- 25
2019-08-12 17:00:00 25.6 9 Norte 25 Norte 0 -- -- 28
2019-08-12 16:00:00 25.5 9 Norte 19 Norte 0 -- -- 27
2019-08-12 15:00:00 24.3 8 Norte 20 Norte 0 -- -- 32
2019-08-12 14:00:00 23.3 9 Norte 21 Norte 0 -- -- 30
2019-08-12 13:00:00 22.3 6 Norte 22 Norte 0 -- -- 34
2019-08-12 12:00:00 20.8 8 Norte 22 Norte 0 -- -- 40
2019-08-12 11:00:00 19.5 9 Norte 22 Nordeste 0 -- -- 41
2019-08-12 10:00:00 18.6 6 Norte 14 Norte 0 -- -- 43
2019-08-12 09:00:00 16.4 5 Norte 15 Nordeste 0 -- -- 48
2019-08-12 08:00:00 14.3 5 Sur 17 Nordeste 0 -- -- 53
2019-08-12 07:00:00 14.1 5 Sur 15 Este 0 -- -- 53
2019-08-12 06:00:00 14.5 7 Sudeste 15 Sudeste 0 -- -- 53
2019-08-12 05:00:00 12.7 3 Sudeste 6 Sur 0 -- -- 56
2019-08-12 04:00:00 12.6 4 Sur 9 Sudoeste 0 -- -- 56
2019-08-12 03:00:00 12.7 3 Sudeste 5 Sudeste 0 -- -- 56
2019-08-12 02:00:00 13.6 3 Sur 12 Sur 0 -- -- 53
2019-08-12 01:00:00 15.2 4 Sudoeste 13 Sudoeste 0 -- -- 47
2019-08-12 00:00:00 16.8 8 Sudoeste 20 Oeste 0 -- -- 42
2019-08-11 23:00:00 17.7 8 Sudoeste 24 Oeste 0 -- -- 41
2019-08-11 22:00:00 18.8 10 Sudoeste 23 Oeste 0 -- -- 37
2019-08-11 21:00:00 20.7 8 Oeste 28 Noroeste 0 -- -- 34
2019-08-11 20:00:00 22.5 9 Oeste 28 Noroeste 0 -- -- 33
2019-08-11 19:00:00 23.6 8 Oeste 35 Oeste 0 -- -- 29
2019-08-11 18:00:00 23.7 10 Oeste 29 Noroeste 0 -- -- 31
2019-08-11 17:00:00 23 9 Oeste 27 Oeste 0 -- -- 39
2019-08-11 16:00:00 22.8 10 Oeste 28 Noroeste 0 -- -- 40
2019-08-11 15:00:00 23.5 11 Oeste 22 Sudoeste 0 -- -- 36
2019-08-11 14:00:00 23.5 9 Oeste 24 Noroeste 0 -- -- 41
2019-08-11 13:00:00 22.9 8 Noroeste 23 Noroeste 0 -- -- 42
2019-08-11 12:00:00 21.9 8 Noroeste 22 Noroeste 0 -- -- 52
2019-08-11 11:00:00 20.3 8 Norte 16 Norte 0 -- -- 56
2019-08-11 10:00:00 18.6 7 Noroeste 17 Sudoeste 0 -- -- 61
2019-08-11 09:00:00 16.5 3 Nordeste 15 Noroeste 0 -- -- 67
2019-08-11 08:00:00 14.5 3 Sudeste 29 Sudoeste 0 -- -- 71
2019-08-11 07:00:00 15.9 16 Sudoeste 27 Sudoeste 0 -- -- 67
2019-08-11 06:00:00 17 2 Sur 10 Este 0 -- -- 57
2019-08-11 05:00:00 16.9 2 Sur 14 Sudoeste 0 -- -- 63
2019-08-11 04:00:00 17.1 7 Sudoeste 21 Sudoeste 0 -- -- 63
2019-08-11 03:00:00 17.8 10 Sudoeste 17 Sudoeste 0 -- -- 60
2019-08-11 02:00:00 18.5 8 Sudoeste 17 Sur 0 -- -- 55
2019-08-11 01:00:00 19.6 5 Sudoeste 12 Sudoeste 0 -- -- 44
2019-08-11 00:00:00 20.3 6 Sudoeste 15 Oeste 0 -- -- 41
2019-08-10 23:00:00 20.3 6 Sudoeste 14 Sudoeste 0 -- -- 44
2019-08-10 22:00:00 20.7 5 Sudoeste 12 Sur 0 -- -- 34
2019-08-10 21:00:00 22.9 6 Sudoeste 14 Noroeste 0 -- -- 33
2019-08-10 20:00:00 25.2 5 Noroeste 28 Noroeste 0 -- -- 32
2019-08-10 19:00:00 27.5 9 Noroeste 27 Oeste 0 -- -- 27
2019-08-10 18:00:00 28.2 8 Noroeste 25 Oeste 0 -- -- 27
2019-08-10 17:00:00 28.2 10 Noroeste 24 Noroeste 0 -- -- 33
2019-08-10 16:00:00 27.8 9 Noroeste 22 Norte 0 -- -- 34
2019-08-10 15:00:00 27.4 8 Noroeste 21 Noroeste 0 -- -- 32
2019-08-10 14:00:00 26.3 6 Oeste 24 Noroeste 0 -- -- 35
2019-08-10 13:00:00 24.3 8 Oeste 17 Oeste 0 -- -- 37
2019-08-10 12:00:00 22.9 8 Noroeste 13 Norte 0 -- -- 45
2019-08-10 11:00:00 21.1 7 Noroeste 16 Oeste 0 -- -- 55
2019-08-10 10:00:00 20 4 Noroeste 16 Oeste 0 -- -- 61
2019-08-10 09:00:00 17.5 4 Oeste 14 Oeste 0 -- -- 71
2019-08-10 08:00:00 14.2 4 Oeste 9 Oeste 0 -- -- 85
2019-08-10 07:00:00 14.7 4 Sudoeste 12 Sur 0 -- -- 84
2019-08-10 06:00:00 15.9 4 Oeste 14 Sudoeste 0 -- -- 81
2019-08-10 05:00:00 15.8 4 Sudoeste 14 Sur 0 -- -- 82
2019-08-10 04:00:00 16.3 4 Sudoeste 10 Oeste 0 -- -- 80
2019-08-10 03:00:00 16.4 3 Sur 12 Sudoeste 0 -- -- 78
2019-08-10 02:00:00 17 7 Sudoeste 16 Oeste 0 -- -- 74
2019-08-10 01:00:00 17 9 Sudoeste 16 Sudoeste 0 -- -- 73
2019-08-10 00:00:00 16.9 3 Sudoeste 14 Sudoeste 0 -- -- 82
2019-08-09 23:00:00 18.9 6 Sudoeste 15 Sudoeste 0 -- -- 75
2019-08-09 22:00:00 19.6 4 Oeste 16 Sur 0 -- -- 79
2019-08-09 21:00:00 20.5 3 Oeste 19 Noroeste 0 -- -- 74
2019-08-09 20:00:00 22.1 7 Noroeste 21 Noroeste 0 -- -- 72
2019-08-09 19:00:00 20.9 6 Noroeste 21 Noroeste 0 -- -- 80
2019-08-09 18:00:00 20.4 9 Noroeste 26 Oeste 0 -- -- 86
2019-08-09 17:00:00 24.7 10 Noroeste 22 Noroeste 0 -- -- 71
2019-08-09 16:00:00 24.9 6 Oeste 33 Oeste 0 -- -- 64
2019-08-09 15:00:00 25.8 12 Noroeste 27 Oeste 0 -- -- 61
2019-08-09 14:00:00 23.8 8 Oeste 31 Oeste 0 -- -- 69
2019-08-09 13:00:00 23.5 11 Noroeste 37 Oeste 0 -- -- 69
2019-08-09 12:00:00 22.2 8 Noroeste 22 Sudoeste 0 -- -- 75
2019-08-09 11:00:00 21.7 10 Sudoeste 19 Sudoeste 0 -- -- 78
2019-08-09 10:00:00 20.8 4 Noroeste 12 Noroeste 0 -- -- 79
2019-08-09 09:00:00 19 2 Norte 11 Sudoeste 0 -- -- 82
2019-08-09 08:00:00 18.7 3 Oeste 14 Oeste 0 -- -- 80
2019-08-09 07:00:00 19.8 6 Oeste 24 Oeste 0 -- -- 73
2019-08-09 06:00:00 19.6 4 Sudoeste 19 Noroeste 0 -- -- 75
2019-08-09 05:00:00 20 6 Noroeste 19 Oeste 0 -- -- 72
2019-08-09 04:00:00 20.4 5 Oeste 22 Oeste 0 -- -- 71
2019-08-09 03:00:00 21.5 6 Sudoeste 21 Sur 0 -- -- 64
2019-08-09 02:00:00 21.5 7 Sudoeste 23 Sudoeste 0 -- -- 67
2019-08-09 01:00:00 22.3 8 Sudoeste 20 Oeste 0 -- -- 63
2019-08-09 00:00:00 23.6 8 Oeste 21 Sudoeste 0 -- -- 58
2019-08-08 23:00:00 24.5 7 Sudoeste 19 Oeste 0 -- -- 55
2019-08-08 22:00:00 25.3 5 Sudoeste 19 Oeste 0 -- -- 48
2019-08-08 21:00:00 27.2 6 Sudoeste 25 Oeste 0 -- -- 42
2019-08-08 20:00:00 29 7 Noroeste 25 Oeste 0 -- -- 36
2019-08-08 19:00:00 29.9 5 Oeste 36 Oeste 0 -- -- 33
2019-08-08 18:00:00 29.8 8 Oeste 26 Noroeste 0 -- -- 34
2019-08-08 17:00:00 29.6 10 Sudoeste 26 Sudeste 0 -- -- 36
2019-08-08 16:00:00 29.4 7 Oeste 24 Oeste 0 -- -- 39
2019-08-08 15:00:00 28.7 10 Oeste 26 Noroeste 0 -- -- 41
2019-08-08 14:00:00 28.6 6 Noroeste 16 Oeste 0 -- -- 44
2019-08-08 13:00:00 27.6 7 Oeste 15 Sur 0 -- -- 42
2019-08-08 12:00:00 26.2 3 Norte 10 Noroeste 0 -- -- 49
2019-08-08 11:00:00 24.4 5 Noroeste 14 Sudoeste 0 -- -- 53
2019-08-08 10:00:00 23.1 5 Norte 7 Noroeste 0 -- -- 57
2019-08-08 09:00:00 20.2 0 Calma 4 Sudeste 0 -- -- 68
2019-08-08 08:00:00 16.7 3 Sur 5 Sur 0 -- -- 79
2019-08-08 07:00:00 16.9 4 Sur 5 Sur 0 -- -- 77
2019-08-08 06:00:00 17 4 Sudoeste 8 Sudoeste 0 -- -- 76
2019-08-08 05:00:00 17.4 2 Sur 9 Sudoeste 0 -- -- 77
2019-08-08 04:00:00 17.3 4 Sur 7 Sur 0 -- -- 76
2019-08-08 03:00:00 17.7 3 Sur 11 Sur 0 -- -- 73
2019-08-08 02:00:00 18.6 2 Sudoeste 12 Sur 0 -- -- 68
2019-08-08 01:00:00 19.2 3 Sudoeste 11 Sudoeste 0 -- -- 66
2019-08-08 00:00:00 19 2 Sur 10 Sudoeste 0 -- -- 67
2019-08-07 23:00:00 19.1 4 Sudoeste 8 Sudoeste 0 -- -- 66
2019-08-07 22:00:00 20.2 4 Sudoeste 11 Noroeste 0 -- -- 63
2019-08-07 21:00:00 21.9 5 Oeste 17 Noroeste 0 -- -- 58
2019-08-07 20:00:00 23.1 4 Oeste 14 Oeste 0 -- -- 54
2019-08-07 19:00:00 23.1 4 Noroeste 14 Noroeste 0 -- -- 54
2019-08-07 18:00:00 23.4 8 Sudoeste 18 Noroeste 0 -- -- 51
2019-08-07 17:00:00 23.6 5 Noroeste 15 Noroeste 0 -- -- 48
2019-08-07 16:00:00 23.6 8 Noroeste 23 Noroeste 0 -- -- 51
2019-08-07 15:00:00 22.9 5 Noroeste 17 Noroeste 0 -- -- 53
2019-08-07 14:00:00 22.3 9 Noroeste 18 Noroeste 0 -- -- 54
2019-08-07 13:00:00 22.2 7 Oeste 18 Noroeste 0 -- -- 53
2019-08-07 12:00:00 22.8 7 Oeste 18 Oeste 0 -- -- 49
2019-08-07 11:00:00 22.5 5 Oeste 15 Sudoeste 0 -- -- 45
2019-08-07 10:00:00 21.8 3 Nordeste 15 Nordeste 0 -- -- 45
2019-08-07 09:00:00 20.9 3 Nordeste 14 Este 0 -- -- 48
2019-08-07 08:00:00 19.9 5 Nordeste 15 Nordeste 0 -- -- 45
2019-08-07 07:00:00 19.6 3 Sur 12 Nordeste 0 -- -- 47
2019-08-07 06:00:00 20.5 2 Sudoeste 14 Nordeste 0 -- -- 43
2019-08-07 05:00:00 20 3 Nordeste 12 Nordeste 0 -- -- 43
2019-08-07 04:00:00 20.2 6 Sudeste 27 Sudoeste 0 -- -- 48
2019-08-07 03:00:00 21.7 7 Sudoeste 23 Sur 0 -- -- 39
2019-08-07 02:00:00 21.6 6 Sur 15 Sur 0 -- -- 47
2019-08-07 01:00:00 22.4 5 Sudoeste 19 Sudoeste 0 -- -- 51
2019-08-07 00:00:00 23.3 4 Sudoeste 15 Sudoeste 0 -- -- 48
2019-08-06 23:00:00 24.7 7 Sudoeste 16 Sudoeste 0 -- -- 42
2019-08-06 22:00:00 25.4 5 Sudoeste 17 Sudoeste 0 -- -- 35
2019-08-06 21:00:00 27.3 6 Oeste 17 Oeste 0 -- -- 30
2019-08-06 20:00:00 28.4 8 Noroeste 37 Sudoeste 0 -- -- 29
2019-08-06 19:00:00 30.1 9 Oeste 32 Oeste 0 -- -- 30
2019-08-06 18:00:00 30 9 Oeste 23 Noroeste 0 -- -- 27
2019-08-06 17:00:00 30.8 11 Sudoeste 34 Oeste 0 -- -- 27
2019-08-06 16:00:00 31 9 Sudoeste 27 Norte 0 -- -- 29
2019-08-06 15:00:00 30.8 8 Nordeste 22 Noroeste 0 -- -- 28
2019-08-06 14:00:00 29.7 8 Sudoeste 22 Oeste 0 -- -- 29
2019-08-06 13:00:00 29.8 7 Sur 22 Sur 0 -- -- 30
2019-08-06 12:00:00 28.2 7 Oeste 15 Sudoeste 0 -- -- 31
2019-08-06 11:00:00 27.2 4 Sudoeste 15 Oeste 0 -- -- 32
2019-08-06 10:00:00 25.8 4 Norte 9 Norte 0 -- -- 35
2019-08-06 09:00:00 22.9 3 Norte 12 Sudeste 0 -- -- 42
2019-08-06 08:00:00 20.7 2 Oeste 14 Oeste 0 -- -- 45
2019-08-06 07:00:00 20.1 5 Sudeste 12 Noroeste 0 -- -- 44
2019-08-06 06:00:00 21.3 5 Sudeste 13 Noroeste 0 -- -- 46
2019-08-06 05:00:00 21.1 3 Sudeste 10 Sudoeste 0 -- -- 49
2019-08-06 04:00:00 21.5 5 Sudoeste 12 Oeste 0 -- -- 47
2019-08-06 03:00:00 20.1 4 Sudoeste 14 Sudoeste 0 -- -- 46
2019-08-06 02:00:00 22.1 5 Sur 13 Sudoeste 0 -- -- 38
2019-08-06 01:00:00 22.2 4 Sudoeste 10 Oeste 0 -- -- 30
2019-08-06 00:00:00 21.9 4 Sudoeste 8 Sur 0 -- -- 24
2019-08-05 23:00:00 22.9 6 Sudoeste 10 Sudoeste 0 -- -- 23
2019-08-05 22:00:00 24.3 5 Sudoeste 17 Oeste 0 -- -- 22
2019-08-05 21:00:00 28.5 6 Oeste 22 Sudoeste 0 -- -- 20
2019-08-05 20:00:00 30.6 6 Oeste 24 Oeste 0 -- -- 21
2019-08-05 19:00:00 31 12 Oeste 37 Oeste 0 -- -- 19
2019-08-05 18:00:00 31.9 8 Sur 23 Noroeste 0 -- -- 22
2019-08-05 17:00:00 32.1 8 Oeste 22 Oeste 0 -- -- 21
2019-08-05 16:00:00 31.9 8 Noroeste 24 Sur 0 -- -- 24
2019-08-05 15:00:00 31.2 9 Oeste 23 Sudoeste 0 -- -- 24
2019-08-05 14:00:00 30.6 12 Oeste 27 Oeste 0 -- -- 25
2019-08-05 13:00:00 30.1 8 Noroeste 23 Oeste 0 -- -- 26
2019-08-05 12:00:00 29.2 7 Sur 19 Sudoeste 0 -- -- 27
2019-08-05 11:00:00 27.9 6 Sur 15 Sudoeste 0 -- -- 28
2019-08-05 10:00:00 26.4 3 Noroeste 8 Oeste 0 -- -- 30
2019-08-05 09:00:00 22.6 0 Calma 6 Sudoeste 0 -- -- 35
2019-08-05 08:00:00 18.7 4 Sur 8 Sur 0 -- -- 39
2019-08-05 07:00:00 18.7 5 Sur 8 Sur 0 -- -- 40
2019-08-05 06:00:00 19.1 4 Sur 8 Sudeste 0 -- -- 45
2019-08-05 05:00:00 21 5 Sur 16 Sudoeste 0 -- -- 45
2019-08-05 04:00:00 20.1 3 Sur 12 Sur 0 -- -- 52
2019-08-05 03:00:00 19.4 3 Sur 6 Sur 0 -- -- 55
2019-08-05 02:00:00 20.1 2 Sur 10 Sur 0 -- -- 52
2019-08-05 01:00:00 21 4 Sudoeste 10 Sudoeste 0 -- -- 49
2019-08-05 00:00:00 24 8 Sudoeste 15 Sudoeste 0 -- -- 42
2019-08-04 23:00:00 25.3 6 Sudoeste 14 Sudoeste 0 -- -- 38
2019-08-04 22:00:00 26.4 5 Sudoeste 14 Oeste 0 -- -- 34
2019-08-04 21:00:00 28.6 4 Oeste 17 Noroeste 0 -- -- 31
2019-08-04 20:00:00 30.8 5 Oeste 20 Noroeste 0 -- -- 28
2019-08-04 19:00:00 31.6 6 Oeste 27 Oeste 0 -- -- 28
2019-08-04 18:00:00 32 8 Noroeste 26 Noroeste 0 -- -- 26
2019-08-04 17:00:00 31.8 10 Noroeste 29 Norte 0 -- -- 25
2019-08-04 16:00:00 31.1 8 Sudoeste 25 Oeste 0 -- -- 26
2019-08-04 15:00:00 30.6 7 Oeste 21 Oeste 0 -- -- 29
2019-08-04 14:00:00 29.9 7 Sur 23 Oeste 0 -- -- 31
2019-08-04 13:00:00 28.6 6 Sudoeste 21 Oeste 0 -- -- 31
2019-08-04 12:00:00 28.8 7 Noroeste 21 Oeste 0 -- -- 32
2019-08-04 11:00:00 27.3 5 Noroeste 23 Oeste 0 -- -- 35
2019-08-04 10:00:00 26 6 Sudoeste 15 Oeste 0 -- -- 39
2019-08-04 09:00:00 24.4 4 Nordeste 12 Este 0 -- -- 43
2019-08-04 08:00:00 21.2 5 Sur 15 Sudoeste 0 -- -- 52
2019-08-04 07:00:00 21.8 7 Sur 16 Sudoeste 0 -- -- 52
2019-08-04 06:00:00 22.1 7 Sudoeste 17 Sudoeste 0 -- -- 51
2019-08-04 05:00:00 22.1 5 Sudoeste 16 Sudoeste 0 -- -- 49
2019-08-04 04:00:00 22.1 5 Sur 13 Sudoeste 0 -- -- 49
2019-08-04 03:00:00 21.1 5 Sudoeste 13 Sur 0 -- -- 48
2019-08-04 02:00:00 22.5 4 Sudoeste 15 Sur 0 -- -- 42
2019-08-04 01:00:00 21.8 7 Sudoeste 15 Sudoeste 0 -- -- 34
2019-08-04 00:00:00 22.1 5 Sudoeste 10 Sudoeste 0 -- -- 33
2019-08-03 23:00:00 22.9 5 Sur 10 Sudoeste 0 -- -- 30
2019-08-03 22:00:00 25.4 5 Sudoeste 17 Sudoeste 0 -- -- 27
2019-08-03 21:00:00 28.4 6 Oeste 20 Oeste 0 -- -- 23
2019-08-03 20:00:00 30.8 7 Sudoeste 24 Oeste 0 -- -- 19
2019-08-03 19:00:00 31.4 8 Oeste 24 Noroeste 0 -- -- 22
2019-08-03 18:00:00 31.7 10 Oeste 30 Oeste 0 -- -- 18
2019-08-03 17:00:00 32 9 Oeste 28 Sudoeste 0 -- -- 21
2019-08-03 16:00:00 32 9 Sudoeste 22 Oeste 0 -- -- 23
2019-08-03 15:00:00 31.8 13 Noroeste 31 Norte 0 -- -- 27
2019-08-03 14:00:00 31.2 7 Oeste 23 Norte 0 -- -- 28
2019-08-03 13:00:00 30.9 6 Noroeste 20 Nordeste 0 -- -- 26
2019-08-03 12:00:00 29.4 6 Noroeste 14 Noroeste 0 -- -- 31
2019-08-03 11:00:00 28.2 5 Noroeste 14 Oeste 0 -- -- 32
2019-08-03 10:00:00 27.2 5 Norte 10 Noroeste 0 -- -- 32
2019-08-03 09:00:00 23.8 4 Oeste 8 Sudoeste 0 -- -- 40
2019-08-03 08:00:00 19.6 4 Sur 8 Sur 0 -- -- 39
2019-08-03 07:00:00 19.4 5 Sur 8 Sudeste 0 -- -- 38
2019-08-03 06:00:00 19.8 5 Sur 8 Sur 0 -- -- 35
2019-08-03 05:00:00 19.8 5 Sur 7 Sur 0 -- -- 33
2019-08-03 04:00:00 20.1 5 Sur 7 Sur 0 -- -- 33
2019-08-03 03:00:00 20.9 4 Sur 10 Sur 0 -- -- 31
2019-08-03 02:00:00 21.2 6 Sur 9 Sudoeste 0 -- -- 31
2019-08-03 01:00:00 21.9 6 Sur 10 Sudoeste 0 -- -- 28
2019-08-03 00:00:00 22 6 Sur 8 Sudeste 0 -- -- 26
2019-08-02 23:00:00 22.3 5 Sur 10 Sur 0 -- -- 25
2019-08-02 22:00:00 24.6 5 Sur 18 Sudoeste 0 -- -- 22
2019-08-02 21:00:00 28.3 5 Sudoeste 15 Oeste 0 -- -- 19
2019-08-02 20:00:00 31.1 6 Oeste 21 Noroeste 0 -- -- 18
2019-08-02 19:00:00 31.9 6 Sudoeste 22 Oeste 0 -- -- 18
2019-08-02 18:00:00 32.5 9 Noroeste 22 Noroeste 0 -- -- 18
2019-08-02 17:00:00 32.3 6 Noroeste 30 Noroeste 0 -- -- 21
2019-08-02 16:00:00 31.9 9 Noroeste 27 Norte 0 -- -- 22
2019-08-02 15:00:00 31.3 9 Noroeste 22 Norte 0 -- -- 25
2019-08-02 14:00:00 30.5 9 Noroeste 20 Noroeste 0 -- -- 26
2019-08-02 13:00:00 29.5 8 Noroeste 21 Noroeste 0 -- -- 25
2019-08-02 12:00:00 28.4 6 Noroeste 16 Noroeste 0 -- -- 29
2019-08-02 11:00:00 26.9 6 Noroeste 13 Noroeste 0 -- -- 34
2019-08-02 10:00:00 26.3 2 Noroeste 5 Noroeste 0 -- -- 31
2019-08-02 09:00:00 22.2 0 Calma 6 Sur 0 -- -- 43
2019-08-02 08:00:00 18.3 5 Sur 7 Sur 0 -- -- 42
2019-08-02 07:00:00 18.2 5 Sur 8 Sur 0 -- -- 46
2019-08-02 06:00:00 18.6 5 Sur 8 Sudoeste 0 -- -- 46
2019-08-02 05:00:00 18.7 6 Sudoeste 10 Sudoeste 0 -- -- 45
2019-08-02 04:00:00 18.9 6 Sudoeste 8 Sudoeste 0 -- -- 45
2019-08-02 03:00:00 18.9 3 Sur 7 Sudoeste 0 -- -- 44
2019-08-02 02:00:00 20.7 5 Sudoeste 18 Sur 0 -- -- 40
2019-08-02 01:00:00 22.3 11 Sudoeste 18 Sudoeste 0 -- -- 35
2019-08-02 00:00:00 23.3 8 Sudoeste 19 Sur 0 -- -- 35
2019-08-01 23:00:00 22.7 2 Sur 13 Sur 0 -- -- 39
2019-08-01 22:00:00 24.8 6 Sur 12 Sur 0 -- -- 33
2019-08-01 21:00:00 27.4 4 Oeste 21 Noroeste 0 -- -- 27
2019-08-01 20:00:00 29.6 6 Oeste 23 Norte 0 -- -- 27
2019-08-01 19:00:00 30.3 8 Sudoeste 28 Oeste 0 -- -- 27
2019-08-01 18:00:00 30.4 8 Oeste 25 Noroeste 0 -- -- 29
2019-08-01 17:00:00 30.9 9 Noroeste 37 Noroeste 0 -- -- 29
2019-08-01 16:00:00 30.4 10 Oeste 28 Noroeste 0 -- -- 27
2019-08-01 15:00:00 29.9 10 Noroeste 22 Noroeste 0 -- -- 27
2019-08-01 14:00:00 29.3 9 Noroeste 26 Oeste 0 -- -- 31
2019-08-01 13:00:00 28.8 7 Sur 19 Sur 0 -- -- 25
2019-08-01 12:00:00 27.3 6 Noroeste 14 Noroeste 0 -- -- 26
2019-08-01 11:00:00 26.1 5 Noroeste 14 Noroeste 0 -- -- 29
2019-08-01 10:00:00 25.6 3 Noroeste 17 Sudoeste 0 -- -- 29
2019-08-01 09:00:00 23.4 3 Sudoeste 17 Sudoeste 0 -- -- 32
2019-08-01 08:00:00 21 4 Sur 14 Sudoeste 0 -- -- 34
2019-08-01 07:00:00 20.4 5 Sudoeste 12 Oeste 0 -- -- 36
2019-08-01 06:00:00 19.6 4 Sur 8 Sudoeste 0 -- -- 36
2019-08-01 05:00:00 20.1 4 Sudoeste 8 Sur 0 -- -- 33
2019-08-01 04:00:00 20.8 6 Sudoeste 9 Sur 0 -- -- 32
2019-08-01 03:00:00 20.9 5 Sudoeste 8 Sudoeste 0 -- -- 31
2019-08-01 02:00:00 20.9 4 Sur 8 Sudoeste 0 -- -- 30
2019-08-01 01:00:00 21.6 5 Sudoeste 11 Sudoeste 0 -- -- 31
2019-08-01 00:00:00 22.1 5 Sudoeste 8 Sur 0 -- -- 31
2019-07-31 23:00:00 22.8 5 Sur 8 Sudoeste 0 -- -- 31
2019-07-31 22:00:00 23.8 5 Sur 8 Sur 0 -- -- 31
2019-07-31 21:00:00 26.2 4 Sur 9 Noroeste 0 -- -- 31
2019-07-31 20:00:00 30.1 4 Oeste 17 Sudoeste 0 -- -- 26
2019-07-31 19:00:00 31.2 6 Sur 22 Oeste 0 -- -- 23
2019-07-31 18:00:00 31.7 5 Sudoeste 23 Noroeste 0 -- -- 22
2019-07-31 17:00:00 31.7 8 Sudoeste 23 Oeste 0 -- -- 24
2019-07-31 16:00:00 31.5 5 Norte 22 Noroeste 0 -- -- 25
2019-07-31 15:00:00 30.6 8 Noroeste 19 Noroeste 0 -- -- 30
2019-07-31 14:00:00 29.7 6 Este 17 Norte 0 -- -- 32
2019-07-31 13:00:00 28.6 9 Nordeste 19 Nordeste 0 -- -- 36
2019-07-31 12:00:00 27.2 6 Noroeste 20 Norte 0 -- -- 37
2019-07-31 11:00:00 25.4 5 Norte 12 Norte 0 -- -- 39
2019-07-31 10:00:00 23.7 4 Norte 8 Noroeste 0 -- -- 39
2019-07-31 09:00:00 20.1 0 Calma 9 Nordeste 0 -- -- 48
2019-07-31 08:00:00 17.1 2 Sur 5 Sudeste 0 -- -- 42
2019-07-31 07:00:00 16.9 3 Sudeste 5 Sur 0 -- -- 39
2019-07-31 06:00:00 16.7 0 Calma 10 Nordeste 0 -- -- 40
2019-07-31 05:00:00 19.7 5 Este 17 Nordeste 0 -- -- 36
2019-07-31 04:00:00 21.1 7 Sudeste 20 Sudeste 0 -- -- 31
2019-07-31 03:00:00 21.4 6 Sur 18 Sur 0 -- -- 32
2019-07-31 02:00:00 20.1 5 Sudeste 10 Sudeste 0 -- -- 37
2019-07-31 01:00:00 18.8 3 Sur 6 Sur 0 -- -- 38
2019-07-31 00:00:00 19.4 4 Sur 8 Sudeste 0 -- -- 34
2019-07-30 23:00:00 20.2 4 Sur 8 Este 0 -- -- 33
2019-07-30 22:00:00 20.9 4 Sur 8 Noroeste 0 -- -- 30
2019-07-30 21:00:00 25.4 5 Norte 16 Norte 0 -- -- 25
2019-07-30 20:00:00 28 5 Norte 14 Nordeste 0 -- -- 24
2019-07-30 19:00:00 28.5 6 Norte 18 Norte 0 -- -- 24
2019-07-30 18:00:00 28.8 8 Noroeste 23 Oeste 0 -- -- 24
2019-07-30 17:00:00 29 8 Norte 17 Norte 0 -- -- 27
2019-07-30 16:00:00 27.9 5 Norte 21 Norte 0 -- -- 30
2019-07-30 15:00:00 27.1 8 Noroeste 25 Noroeste 0 -- -- 30
2019-07-30 14:00:00 26.4 6 Noroeste 18 Oeste 0 -- -- 27
2019-07-30 13:00:00 24.9 8 Noroeste 21 Norte 0 -- -- 30
2019-07-30 12:00:00 23.6 6 Norte 18 Norte 0 -- -- 34
2019-07-30 11:00:00 21.6 6 Noroeste 16 Este 0 -- -- 36
2019-07-30 10:00:00 19.8 7 Norte 13 Norte 0 -- -- 38
2019-07-30 09:00:00 18 7 Sudeste 15 Este 0 -- -- 36
2019-07-30 08:00:00 13.7 2 Sur 7 Sur 0 -- -- 42
2019-07-30 07:00:00 13.8 4 Sudeste 11 Sudoeste 0 -- -- 41
2019-07-30 06:00:00 15.8 2 Sudeste 16 Sudoeste 0 -- -- 36
2019-07-30 05:00:00 17.3 9 Sudoeste 19 Sudoeste 0 -- -- 32
2019-07-30 04:00:00 17.7 12 Sudoeste 22 Sudoeste 0 -- -- 37
2019-07-30 03:00:00 18 14 Sudoeste 23 Sur 0 -- -- 38
2019-07-30 02:00:00 16.2 6 Sudoeste 12 Sur 0 -- -- 47
2019-07-30 01:00:00 17.4 5 Sudoeste 14 Sudoeste 0 -- -- 44
2019-07-30 00:00:00 18.6 7 Sudoeste 14 Sudoeste 0 -- -- 40
2019-07-29 23:00:00 20.3 5 Sudoeste 16 Sudoeste 0 -- -- 38
2019-07-29 22:00:00 21.9 6 Sudoeste 27 Oeste 0 -- -- 39
2019-07-29 21:00:00 24.6 9 Noroeste 23 Oeste 0 -- -- 36
2019-07-29 20:00:00 26.5 9 Oeste 34 Noroeste 0 -- -- 29
2019-07-29 19:00:00 27.3 9 Sudoeste 27 Noroeste 0 -- -- 30
2019-07-29 18:00:00 27.8 10 Oeste 28 Sudoeste 0 -- -- 30
2019-07-29 17:00:00 28 12 Noroeste 35 Noroeste 0 -- -- 29
2019-07-29 16:00:00 27.3 10 Oeste 26 Oeste 0 -- -- 33
2019-07-29 15:00:00 26.9 11 Noroeste 28 Oeste 0 -- -- 34
2019-07-29 14:00:00 26.6 10 Noroeste 26 Norte 0 -- -- 32
2019-07-29 13:00:00 26.4 6 Oeste 23 Noroeste 0 -- -- 32
2019-07-29 12:00:00 25.1 6 Noroeste 16 Noroeste 0 -- -- 28
2019-07-29 11:00:00 23.8 6 Noroeste 16 Oeste 0 -- -- 22
2019-07-29 10:00:00 23.7 6 Sudoeste 12 Sur 0 -- -- 32
2019-07-29 09:00:00 22.2 5 Sur 14 Sur 0 -- -- 23
2019-07-29 08:00:00 19.2 5 Sudoeste 16 Sudoeste 0 -- -- 31
2019-07-29 07:00:00 19.2 5 Sudoeste 14 Sudoeste 0 -- -- 39
2019-07-29 06:00:00 18.2 3 Oeste 11 Sudoeste 0 -- -- 59
2019-07-29 05:00:00 17.4 5 Sudoeste 9 Sudoeste 0 -- -- 65
2019-07-29 04:00:00 18 4 Sur 14 Sudoeste 0 -- -- 63
2019-07-29 03:00:00 19.9 9 Sudoeste 18 Sudoeste 0 -- -- 58
2019-07-29 02:00:00 20.2 9 Sudoeste 16 Sudoeste 0 -- -- 56
2019-07-29 01:00:00 19.9 2 Este 9 Sudoeste 0 -- -- 56
2019-07-29 00:00:00 21.3 4 Sur 12 Oeste 0 -- -- 51
2019-07-28 23:00:00 22.3 4 Sur 14 Sur 0 -- -- 50
2019-07-28 22:00:00 22.8 5 Sudoeste 12 Sudoeste 0 -- -- 43
2019-07-28 21:00:00 25.2 4 Oeste 19 Oeste 0 -- -- 39
2019-07-28 20:00:00 27.2 6 Sudoeste 19 Oeste 0 -- -- 37
2019-07-28 19:00:00 27.6 5 Noroeste 18 Oeste 0 -- -- 37
2019-07-28 18:00:00 28 7 Oeste 24 Noroeste 0 -- -- 38
2019-07-28 17:00:00 28 6 Oeste 22 Noroeste 0 -- -- 36
2019-07-28 16:00:00 27.4 9 Noroeste 24 Oeste 0 -- -- 41
2019-07-28 15:00:00 26.3 8 Oeste 19 Noroeste 0 -- -- 42
2019-07-28 14:00:00 25.1 4 Sudeste 12 Sudoeste 0 -- -- 47
2019-07-28 13:00:00 24.3 9 Noroeste 14 Norte 0 -- -- 51
2019-07-28 12:00:00 21.8 5 Noroeste 13 Noroeste 0 -- -- 58
2019-07-28 11:00:00 22.7 6 Norte 14 Norte 0 -- -- 56
2019-07-28 10:00:00 20.9 4 Noroeste 8 Noroeste 0 -- -- 63
2019-07-28 09:00:00 18.9 0 Calma 12 Este 0 -- -- 68
2019-07-28 08:00:00 16.7 5 Sudeste 12 Este 0 -- -- 77
2019-07-28 07:00:00 15.5 6 Sudeste 12 Sudeste 0 -- -- 75
2019-07-28 06:00:00 14.9 5 Sur 7 Sudeste 0 -- -- 79
2019-07-28 05:00:00 14.8 4 Sur 5 Sudeste 0 -- -- 80
2019-07-28 04:00:00 14.8 3 Sur 6 Sur 0 -- -- 80
2019-07-28 03:00:00 15.5 3 Sur 12 Sudoeste 0 -- -- 78
2019-07-28 02:00:00 16.8 4 Sudoeste 14 Sudoeste 0 -- -- 70
2019-07-28 01:00:00 17.4 7 Sudoeste 16 Sur 0 -- -- 69
2019-07-28 00:00:00 18.1 7 Sudoeste 14 Sudoeste 0 -- -- 68
2019-07-27 23:00:00 18.6 5 Sudoeste 17 Sudoeste 0 -- -- 69
2019-07-26 12:00:00 22.7 9 Noroeste 23 Noroeste 0 -- -- 48
2019-07-26 11:00:00 21.3 7 Sudoeste 20 Sudoeste 0 -- -- 50
2019-07-26 10:00:00 20.2 12 Sudoeste 22 Sur 0 -- -- 66
2019-07-26 09:00:00 18.6 3 Norte 14 Oeste 0 -- -- 77
2019-07-26 08:00:00 17.5 8 Sudoeste 17 Sur 0 -- -- 80
2019-07-26 07:00:00 16.8 2 Sudeste 10 Este 0 -- -- 84
2019-07-26 06:00:00 18.2 4 Sudeste 13 Sudoeste 0 -- -- 80
2019-07-26 05:00:00 19 5 Sudoeste 11 Sudoeste 0 -- -- 77
2019-07-26 04:00:00 19.7 5 Sudoeste 15 Sudoeste 0 -- -- 74
2019-07-26 03:00:00 20.2 6 Oeste 17 Oeste 0 -- -- 72
2019-07-26 02:00:00 21.1 4 Sudoeste 22 Sudoeste 0 -- -- 67
2019-07-26 01:00:00 22.4 6 Oeste 19 Noroeste 0 -- -- 60
2019-07-26 00:00:00 23.8 6 Sudoeste 19 Sudoeste 0 -- -- 43
2019-07-25 23:00:00 24.5 4 Sudoeste 20 Sudoeste 0 -- -- 31
2019-07-25 22:00:00 25.5 6 Sudoeste 17 Sudoeste 0 -- -- 33
2019-07-25 21:00:00 27.9 5 Oeste 23 Oeste 0 -- -- 33
2019-07-25 20:00:00 30.1 8 Oeste 24 Oeste 0 -- -- 28
2019-07-25 19:00:00 31 6 Oeste 30 Oeste 0 -- -- 24
2019-07-25 18:00:00 31.2 10 Noroeste 29 Oeste 0 -- -- 24
2019-07-25 17:00:00 30.4 8 Sudoeste 20 Sudoeste 0 -- -- 27
2019-07-25 16:00:00 31.4 8 Oeste 26 Noroeste 0 -- -- 27
2019-07-25 15:00:00 30.9 8 Oeste 26 Noroeste 0 -- -- 31
2019-07-25 14:00:00 30.2 10 Oeste 22 Sur 0 -- -- 33
2019-07-25 13:00:00 29.4 7 Sur 23 Sudoeste 0 -- -- 36
2019-07-25 12:00:00 29 8 Oeste 23 Noroeste 0 -- -- 36
2019-07-25 11:00:00 27.8 5 Noroeste 14 Oeste 0 -- -- 39
2019-07-25 10:00:00 27.5 5 Noroeste 8 Sudoeste 0 -- -- 40
2019-07-25 09:00:00 24.1 0 Calma 5 Sur 0 -- -- 48
2019-07-25 08:00:00 20.1 4 Sudoeste 10 Sudoeste 0 -- -- 59
2019-07-25 07:00:00 19.6 5 Sur 9 Sudoeste 0 -- -- 56
2019-07-25 06:00:00 20 6 Sudoeste 9 Sudoeste 0 -- -- 55
2019-07-25 05:00:00 20.6 6 Sur 13 Sudoeste 0 -- -- 54
2019-07-25 04:00:00 23 8 Sudoeste 23 Sudoeste 0 -- -- 45
2019-07-25 03:00:00 24.1 12 Sudoeste 22 Sudoeste 0 -- -- 42
2019-07-25 02:00:00 24.2 3 Sudoeste 17 Sudoeste 0 -- -- 40
2019-07-25 01:00:00 25.8 7 Sudoeste 16 Sudoeste 0 -- -- 38
2019-07-25 00:00:00 26.6 6 Sudoeste 14 Sudoeste 0 -- -- 37
2019-07-24 23:00:00 27.2 5 Sudoeste 12 Sur 0 -- -- 38
2019-07-24 22:00:00 27.7 4 Sur 10 Sur 0 -- -- 39
2019-07-24 21:00:00 30.6 3 Oeste 13 Oeste 0 -- -- 35
2019-07-24 20:00:00 32.7 4 Noroeste 22 Oeste 0 -- -- 30
2019-07-24 19:00:00 33 6 Oeste 24 Oeste 0 -- -- 31
2019-07-24 18:00:00 33.4 9 Oeste 21 Noroeste 0 -- -- 29
2019-07-24 17:00:00 33.3 9 Sur 34 Oeste 0 -- -- 29
2019-07-24 16:00:00 33.4 7 Sudoeste 23 Sur 0 -- -- 30
2019-07-24 15:00:00 33 7 Este 21 Oeste 0 -- -- 29
2019-07-24 14:00:00 32.1 9 Oeste 31 Sudoeste 0 -- -- 30
2019-07-24 13:00:00 30.9 6 Sur 13 Sur 0 -- -- 35
2019-07-24 12:00:00 30.3 6 Noroeste 13 Noroeste 0 -- -- 37
2019-07-24 11:00:00 28.6 5 Noroeste 11 Noroeste 0 -- -- 43
2019-07-24 10:00:00 28 3 Este 12 Este 0 -- -- 42
2019-07-24 09:00:00 24.7 0 Calma 7 Oeste 0 -- -- 51
2019-07-24 08:00:00 22.3 4 Oeste 11 Sudeste 0 -- -- 53
2019-07-24 07:00:00 21.3 2 Sudoeste 7 Noroeste 0 -- -- 60
2019-07-24 06:00:00 21.9 3 Sudoeste 6 Sur 0 -- -- 57
2019-07-24 05:00:00 23.6 3 Sudoeste 21 Sudeste 0 -- -- 51
2019-07-24 04:00:00 25.1 15 Sur 29 Sudeste 0 -- -- 44
2019-07-24 03:00:00 25.5 21 Sur 38 Sudeste 0 -- -- 42
2019-07-24 02:00:00 24.8 20 Sur 34 Sudeste 0 -- -- 43
2019-07-24 01:00:00 24.9 19 Sur 30 Sur 0 -- -- 45
2019-07-24 00:00:00 24.6 4 Sur 17 Sur 0 -- -- 44
2019-07-23 23:00:00 26.5 8 Sur 22 Sudeste 0 -- -- 46
2019-07-23 22:00:00 27.4 8 Sur 17 Sur 0 -- -- 42
2019-07-23 21:00:00 28.3 9 Sudeste 17 Sudeste 0 -- -- 42
2019-07-23 20:00:00 31.6 5 Oeste 27 Sudoeste 0 -- -- 39
2019-07-23 19:00:00 32.9 7 Oeste 26 Oeste 0 -- -- 33
2019-07-23 18:00:00 32.9 6 Noroeste 23 Oeste 0 -- -- 33
2019-07-23 17:00:00 33.4 8 Noroeste 16 Noroeste 0 -- -- 34
2019-07-23 16:00:00 32.7 8 Noroeste 22 Oeste 0 -- -- 36
2019-07-23 15:00:00 32.7 8 Norte 19 Oeste 0 -- -- 36
2019-07-23 14:00:00 31.2 5 Noroeste 17 Nordeste 0 -- -- 39
2019-07-23 13:00:00 29.7 6 Norte 19 Nordeste 0 -- -- 42
2019-07-23 12:00:00 28 6 Sudeste 26 Norte 0 -- -- 47
2019-07-23 11:00:00 27 5 Sur 15 Sudeste 0 -- -- 44
2019-07-23 10:00:00 21.7 8 Sudeste 30 Este 0.2 -- -- 56
2019-07-23 09:00:00 24.5 9 Sudeste 26 Sudeste 0 -- -- 45
2019-07-23 08:00:00 22.8 15 Sur 30 Sudeste 0 -- -- 48
2019-07-23 07:00:00 21.8 11 Sur 26 Sudeste 0.2 -- -- 50
2019-07-23 06:00:00 21.9 13 Sur 25 Sudeste 0 -- -- 49
2019-07-23 05:00:00 22 9 Este 30 Nordeste 0 -- -- 48
2019-07-23 04:00:00 21.9 8 Sur 32 Este 0.6 -- -- 49
2019-07-23 03:00:00 21.2 14 Sur 35 Sur 4.2 -- -- 68
2019-07-23 02:00:00 22.4 13 Sudeste 27 Sur 0.4 -- -- 57
2019-07-23 01:00:00 20.9 9 Sudeste 34 Sur 6.6 -- -- 73
2019-07-23 00:00:00 26.1 11 Sudeste 26 Sudeste 1.6 -- -- 54
2019-07-22 23:00:00 28.2 5 Sudoeste 17 Noroeste 0 -- -- 41
2019-07-22 22:00:00 29.8 5 Sudoeste 13 Sudeste 0 -- -- 35
2019-07-22 21:00:00 30.2 8 Sudeste 21 Norte 0 -- -- 36
2019-07-22 20:00:00 35 5 Norte 13 Norte 0 -- -- 29
2019-07-22 19:00:00 34.7 4 Sudeste 15 Este 0 -- -- 32
2019-07-22 18:00:00 34.7 7 Sudeste 39 Nordeste 0 -- -- 27
2019-07-22 17:00:00 35.3 6 Este 19 Sudeste 0 -- -- 27
2019-07-22 16:00:00 35.3 6 Sudeste 21 Nordeste 0 -- -- 27
2019-07-22 15:00:00 34.4 9 Norte 19 Sudeste 0 -- -- 29
2019-07-22 14:00:00 33.5 6 Nordeste 25 Nordeste 0 -- -- 33
2019-07-22 13:00:00 32.1 7 Nordeste 22 Norte 0 -- -- 33
2019-07-22 12:00:00 30.2 10 Norte 20 Nordeste 0 -- -- 35
2019-07-22 11:00:00 29 9 Norte 16 Norte 0 -- -- 38
2019-07-22 10:00:00 27.9 5 Sudeste 21 Este 0 -- -- 37
2019-07-22 09:00:00 25.7 4 Este 14 Norte 0 -- -- 39
2019-07-22 08:00:00 23.1 4 Sur 10 Este 0 -- -- 46
2019-07-22 07:00:00 24.5 4 Sur 18 Este 0 -- -- 40
2019-07-22 06:00:00 24.7 5 Sudeste 14 Sudeste 0 -- -- 37
2019-07-22 05:00:00 23.8 4 Sur 12 Sudeste 0 -- -- 43
2019-07-22 04:00:00 25.4 4 Sudeste 8 Sudeste 0 -- -- 41
2019-07-22 03:00:00 26.2 5 Sur 9 Sudeste 0 -- -- 33
2019-07-22 02:00:00 26.3 4 Sur 7 Sudeste 0 -- -- 38
2019-07-22 01:00:00 26.4 3 Sudeste 10 Sudoeste 0 -- -- 38
2019-07-22 00:00:00 26.3 6 Sudoeste 9 Sudoeste 0 -- -- 38
2019-07-21 23:00:00 27.5 3 Este 7 Sudeste 0 -- -- 37
2019-07-21 22:00:00 28.3 3 Sudeste 6 Nordeste 0 -- -- 35
2019-07-21 21:00:00 30.9 3 Sur 12 Norte 0 -- -- 34
2019-07-21 20:00:00 33.4 5 Norte 17 Norte 0 -- -- 29
2019-07-21 19:00:00 35.4 9 Noroeste 24 Noroeste 0 -- -- 26
2019-07-21 18:00:00 36 7 Noroeste 27 Oeste 0 -- -- 26
2019-07-21 17:00:00 36.2 11 Norte 24 Noroeste 0 -- -- 25
2019-07-21 16:00:00 35.2 10 Noroeste 25 Noroeste 0 -- -- 26
2019-07-21 15:00:00 34.8 6 Sudoeste 19 Oeste 0 -- -- 26
2019-07-21 14:00:00 33.9 6 Noroeste 21 Sudoeste 0 -- -- 29
2019-07-21 13:00:00 32.8 4 Noroeste 17 Oeste 0 -- -- 26
2019-07-21 12:00:00 31.5 5 Oeste 13 Oeste 0 -- -- 32
2019-07-21 11:00:00 29.9 3 Noroeste 6 Noroeste 0 -- -- 34
2019-07-21 10:00:00 29 3 Norte 6 Norte 0 -- -- 36
2019-07-21 09:00:00 25.9 0 Calma 5 Sur 0 -- -- 40
2019-07-21 08:00:00 24.7 2 Sudeste 13 Este 0 -- -- 37
2019-07-21 07:00:00 25.1 7 Sur 14 Sudeste 0 -- -- 32
2019-07-21 06:00:00 23.9 4 Sur 9 Sur 0 -- -- 34
2019-07-21 05:00:00 23.3 5 Sur 8 Sudeste 0 -- -- 36
2019-07-21 04:00:00 23.1 6 Sur 7 Sur 0 -- -- 36
2019-07-21 03:00:00 23.2 5 Sur 6 Sudeste 0 -- -- 36
2019-07-21 02:00:00 23.4 4 Sur 15 Sudoeste 0 -- -- 36
2019-07-21 01:00:00 24.3 4 Sur 8 Sur 0 -- -- 34
2019-07-21 00:00:00 24.7 3 Sudeste 10 Sur 0 -- -- 34
2019-07-20 23:00:00 25.8 4 Sudoeste 13 Sur 0 -- -- 33
2019-07-20 22:00:00 29.1 6 Sudoeste 17 Oeste 0 -- -- 28
2019-07-20 21:00:00 31 5 Oeste 26 Oeste 0 -- -- 27
2019-07-20 20:00:00 32.9 6 Oeste 20 Noroeste 0 -- -- 24
2019-07-20 19:00:00 33.7 6 Noroeste 28 Noroeste 0 -- -- 25
2019-07-20 18:00:00 34 9 Oeste 27 Noroeste 0 -- -- 28
2019-07-20 17:00:00 33.9 9 Oeste 30 Noroeste 0 -- -- 28
2019-07-20 16:00:00 33.9 11 Oeste 26 Noroeste 0 -- -- 28
2019-07-20 15:00:00 33.5 11 Norte 22 Oeste 0 -- -- 27
2019-07-20 14:00:00 32.4 8 Oeste 19 Noroeste 0 -- -- 27
2019-07-20 13:00:00 31.5 8 Norte 18 Noroeste 0 -- -- 30
2019-07-20 12:00:00 30.3 8 Oeste 17 Oeste 0 -- -- 36
2019-07-20 11:00:00 29.5 5 Oeste 11 Noroeste 0 -- -- 39
2019-07-20 10:00:00 29.2 2 Oeste 9 Noroeste 0 -- -- 39
2019-07-20 09:00:00 26.2 0 Calma 9 Sur 0 -- -- 43
2019-07-20 08:00:00 22.8 5 Sudoeste 8 Sudoeste 0 -- -- 49
2019-07-20 07:00:00 22 4 Sur 8 Sudoeste 0 -- -- 52
2019-07-20 06:00:00 22.2 4 Sur 6 Sur 0 -- -- 50
2019-07-20 05:00:00 22.5 4 Sur 7 Sur 0 -- -- 47
2019-07-20 04:00:00 22.9 5 Sur 6 Sur 0 -- -- 44
2019-07-20 03:00:00 23.4 4 Sur 7 Sur 0 -- -- 43
2019-07-20 02:00:00 23.5 4 Sur 8 Sudoeste 0 -- -- 43
2019-07-20 01:00:00 24.9 6 Sudoeste 12 Sur 0 -- -- 40
2019-07-20 00:00:00 26.1 5 Sudoeste 12 Oeste 0 -- -- 35
2019-07-19 23:00:00 26.1 5 Sur 10 Sudoeste 0 -- -- 36
2019-07-19 22:00:00 27.5 4 Sur 12 Oeste 0 -- -- 34
2019-07-19 21:00:00 30.8 4 Oeste 14 Oeste 0 -- -- 28
2019-07-19 20:00:00 32.2 5 Oeste 18 Oeste 0 -- -- 26
2019-07-19 19:00:00 33.5 9 Oeste 26 Sudoeste 0 -- -- 24
2019-07-19 18:00:00 34.1 9 Sur 22 Oeste 0 -- -- 24
2019-07-19 17:00:00 34.1 9 Oeste 22 Sudoeste 0 -- -- 23
2019-07-19 16:00:00 33.3 10 Sur 37 Oeste 0 -- -- 27
2019-07-19 15:00:00 32.5 9 Oeste 21 Oeste 0 -- -- 30
2019-07-19 14:00:00 32.9 8 Sudeste 26 Sur 0 -- -- 27
2019-07-19 13:00:00 32.6 5 Nordeste 19 Norte 0 -- -- 27
2019-07-19 12:00:00 31.8 4 Nordeste 14 Noroeste 0 -- -- 32
2019-07-19 11:00:00 29.3 6 Noroeste 12 Noroeste 0 -- -- 40
2019-07-19 10:00:00 28.7 4 Noroeste 8 Noroeste 0 -- -- 42
2019-07-19 09:00:00 25.8 0 Calma 5 Sudeste 0 -- -- 52
2019-07-19 08:00:00 23.6 4 Sur 12 Sur 0 -- -- 48
2019-07-19 07:00:00 25.2 9 Sur 22 Sudeste 0 -- -- 40
2019-07-19 06:00:00 24.8 9 Sur 18 Sur 0 -- -- 40
2019-07-19 05:00:00 23.7 3 Sur 8 Nordeste 0 -- -- 45
2019-07-19 04:00:00 22.4 4 Sur 6 Sur 0 -- -- 50
2019-07-19 03:00:00 22.5 5 Sur 7 Sur 0 -- -- 50
2019-07-19 02:00:00 22.8 5 Sur 8 Sudoeste 0 -- -- 48
2019-07-19 01:00:00 23.4 5 Sur 8 Sudoeste 0 -- -- 46
2019-07-19 00:00:00 23.8 5 Sur 8 Sur 0 -- -- 47